Time;durP1;ratioP1;P1;durP2;ratioP2;P2;SDS_P1;SDS_P2;PMS_P1;PMS_P2;Temp;Humidity;BMP_temperature;BMP_pressure;BME280_temperature;BME280_humidity;BME280_pressure;Samples;Min_cycle;Max_cycle;Signal;HPM_P1;HPM_P2
2023/03/25 00:00:57;;;;;;;12.00;2.58;;;10.10;99.90;;;;;;5082701;28;20045;-71
2023/03/25 00:03:29;;;;;;;13.48;2.30;;;10.10;99.90;;;;;;5032562;28;20052;-71
2023/03/25 00:05:56;;;;;;;14.00;2.08;;;10.10;99.90;;;;;;5032563;28;20076;-71
2023/03/25 00:08:23;;;;;;;16.13;2.90;;;10.00;99.90;;;;;;5050387;28;20048;-71
2023/03/25 00:10:59;;;;;;;18.98;3.05;;;10.00;99.90;;;;;;5049971;28;20041;-71
2023/03/25 00:13:26;;;;;;;16.88;2.95;;;9.90;99.90;;;;;;5049373;28;20036;-69
2023/03/25 00:15:57;;;;;;;18.63;3.72;;;9.80;99.90;;;;;;5048597;28;20033;-69
2023/03/25 00:18:24;;;;;;;13.55;2.50;;;9.70;99.90;;;;;;5050493;28;20438;-69
2023/03/25 00:20:52;;;;;;;13.65;2.90;;;9.60;99.90;;;;;;5049036;28;20052;-69
2023/03/25 00:23:19;;;;;;;14.13;2.42;;;9.50;99.90;;;;;;5048394;28;20179;-69
2023/03/25 00:25:46;;;;;;;14.52;3.33;;;9.50;99.90;;;;;;5048944;28;20056;-70
2023/03/25 00:28:13;;;;;;;15.95;3.10;;;9.40;99.90;;;;;;5050222;28;20037;-69
2023/03/25 00:30:41;;;;;;;21.10;4.20;;;9.40;99.90;;;;;;5048291;28;20048;-69
2023/03/25 00:33:09;;;;;;;14.52;3.40;;;9.30;99.90;;;;;;5032815;28;20096;-69
2023/03/25 00:35:37;;;;;;;16.95;3.30;;;9.30;99.90;;;;;;5052748;28;20048;-69
2023/03/25 00:38:03;;;;;;;15.85;2.78;;;9.30;99.90;;;;;;5052159;28;20056;-68
2023/03/25 00:40:34;;;;;;;17.08;3.58;;;9.30;99.90;;;;;;5052815;28;20037;-68
2023/03/25 00:43:01;;;;;;;19.95;3.75;;;9.20;99.90;;;;;;5054200;28;20083;-67
2023/03/25 00:45:27;;;;;;;19.98;3.63;;;9.20;99.90;;;;;;5035284;28;20037;-67
2023/03/25 00:47:53;;;;;;;20.35;4.05;;;9.20;99.90;;;;;;5052718;28;20029;-67
2023/03/25 00:50:20;;;;;;;20.65;4.07;;;9.20;99.90;;;;;;5052666;28;20096;-67
2023/03/25 00:52:47;;;;;;;12.57;3.10;;;9.20;99.90;;;;;;5053136;28;20056;-67
2023/03/25 00:55:12;;;;;;;21.92;3.78;;;9.20;99.90;;;;;;5052328;28;20048;-67
2023/03/25 00:57:38;;;;;;;18.38;3.22;;;9.10;99.90;;;;;;5051811;28;20159;-67
2023/03/25 01:00:07;;;;;;;19.75;3.80;;;9.10;99.90;;;;;;5052331;28;20076;-67
2023/03/25 01:02:33;;;;;;;22.77;4.78;;;9.10;99.90;;;;;;5052445;28;20049;-67
2023/03/25 01:04:59;;;;;;;21.92;4.30;;;9.10;99.90;;;;;;5051667;28;20140;-67
2023/03/25 01:07:28;;;;;;;25.50;3.95;;;9.10;99.90;;;;;;5035528;28;20048;-67
2023/03/25 01:09:55;;;;;;;19.88;3.75;;;9.10;99.90;;;;;;5052300;28;20436;-67
2023/03/25 01:12:21;;;;;;;23.10;3.83;;;9.20;99.90;;;;;;5052882;28;20051;-66
2023/03/25 01:14:47;;;;;;;31.70;4.15;;;9.10;99.90;;;;;;5052228;28;20041;-67
2023/03/25 01:17:13;;;;;;;20.20;3.30;;;9.20;99.90;;;;;;5052360;28;20079;-67
2023/03/25 01:19:39;;;;;;;19.65;4.45;;;9.20;99.90;;;;;;5051362;28;20469;-66
2023/03/25 01:22:05;;;;;;;18.38;3.42;;;9.20;99.90;;;;;;5051844;28;20066;-67
2023/03/25 01:24:31;;;;;;;26.00;3.85;;;9.30;99.90;;;;;;5051686;28;20111;-67
2023/03/25 01:26:57;;;;;;;18.98;3.17;;;9.30;99.90;;;;;;5052707;28;20033;-67
2023/03/25 01:29:23;;;;;;;12.02;3.30;;;9.30;99.90;;;;;;5053115;28;20424;-67
2023/03/25 01:31:49;;;;;;;24.75;4.90;;;9.30;99.90;;;;;;5035335;28;20389;-67
2023/03/25 01:34:15;;;;;;;20.88;3.60;;;9.30;99.90;;;;;;5051040;28;20052;-67
2023/03/25 01:36:45;;;;;;;25.45;4.45;;;9.30;99.90;;;;;;5051807;28;20053;-67
2023/03/25 01:39:15;;;;;;;22.77;4.80;;;9.30;99.90;;;;;;5051443;28;20045;-69
2023/03/25 01:41:42;;;;;;;21.77;4.82;;;9.30;99.90;;;;;;5051174;28;20401;-68
2023/03/25 01:44:14;;;;;;;20.92;3.88;;;9.30;99.90;;;;;;5052654;28;20076;-68
2023/03/25 01:46:44;;;;;;;23.38;4.30;;;9.30;99.90;;;;;;5051299;28;20047;-66
2023/03/25 01:49:13;;;;;;;;;;;9.30;99.90;;;;;;5053014;28;20049;-68
2023/03/25 01:51:45;;;;;;;25.67;4.78;;;9.30;99.90;;;;;;5052539;28;20345;-66
2023/03/25 01:54:11;;;;;;;21.27;4.78;;;9.30;99.90;;;;;;5050850;28;20045;-68
2023/03/25 01:56:41;;;;;;;22.48;5.22;;;9.30;99.90;;;;;;5051234;28;20128;-68
2023/03/25 01:59:10;;;;;;;26.33;5.45;;;9.30;99.90;;;;;;5052305;28;20096;-67
2023/03/25 02:01:36;;;;;;;20.27;5.07;;;9.30;99.90;;;;;;5050565;28;20116;-69
2023/03/25 02:04:10;;;;;;;22.10;3.95;;;9.30;99.90;;;;;;5050925;28;20708;-66
2023/03/25 02:06:49;;;;;;;27.33;4.88;;;9.30;99.90;;;;;;5051024;28;20051;-67
2023/03/25 02:09:18;;;;;;;18.92;4.20;;;9.30;99.90;;;;;;5050405;28;20041;-67
2023/03/25 02:11:44;;;;;;;19.90;3.85;;;9.30;99.90;;;;;;5050950;28;20044;-67
2023/03/25 02:14:18;;;;;;;18.10;4.07;;;9.30;99.90;;;;;;5052158;28;20036;-67
2023/03/25 02:17:10;;;;;;;20.95;4.00;;;9.30;99.90;;;;;;5051792;28;20393;-67
2023/03/25 02:19:55;;;;;;;24.83;5.65;;;9.30;99.90;;;;;;5050881;28;20052;-67
2023/03/25 02:22:40;;;;;;;20.70;3.78;;;9.30;99.90;;;;;;5049987;28;20095;-67
2023/03/25 02:25:18;;;;;;;26.75;5.15;;;9.30;99.90;;;;;;5050643;28;20386;-67
2023/03/25 02:27:47;;;;;;;28.23;4.20;;;9.30;99.90;;;;;;5050684;28;20119;-67
2023/03/25 02:30:47;;;;;;;15.30;3.28;;;9.30;99.90;;;;;;5051257;28;20060;-66
2023/03/25 02:33:28;;;;;;;19.58;3.33;;;9.30;99.90;;;;;;5009585;28;20450;-67
2023/03/25 02:36:05;;;;;;;17.95;3.20;;;9.30;99.90;;;;;;4992986;28;20481;-67
2023/03/25 02:38:55;;;;;;;20.80;3.78;;;9.30;99.90;;;;;;4993418;28;20453;-67
2023/03/25 02:41:31;;;;;;;23.30;3.83;;;9.30;99.90;;;;;;4993206;28;20061;-67
2023/03/25 02:44:06;;;;;;;17.83;4.20;;;9.30;99.90;;;;;;4992471;28;20084;-67
2023/03/25 02:46:35;;;;;;;16.25;3.60;;;9.30;99.90;;;;;;4993126;28;20050;-67
2023/03/25 02:49:15;;;;;;;14.07;3.55;;;9.40;99.90;;;;;;5009418;28;20082;-67
2023/03/25 02:51:51;;;;;;;21.13;4.90;;;9.40;99.90;;;;;;4992557;28;20050;-67
2023/03/25 02:54:20;;;;;;;25.98;3.97;;;9.40;99.90;;;;;;4992949;28;20573;-67
2023/03/25 02:56:49;;;;;;;19.85;3.80;;;9.40;99.90;;;;;;5008844;28;20663;-67
2023/03/25 02:59:17;;;;;;;14.57;3.42;;;9.40;99.90;;;;;;5025645;28;20042;-67
2023/03/25 03:01:44;;;;;;;15.18;3.38;;;9.40;99.90;;;;;;4992736;28;20513;-67
2023/03/25 03:04:10;;;;;;;23.15;4.38;;;9.30;99.90;;;;;;5008374;28;20054;-67
2023/03/25 03:06:40;;;;;;;20.27;3.30;;;9.40;99.90;;;;;;4992716;28;20044;-67
2023/03/25 03:09:41;;;;;;;17.52;3.45;;;9.40;99.90;;;;;;4997867;28;20050;-67
2023/03/25 03:12:28;;;;;;;17.98;3.25;;;9.40;99.90;;;;;;5049251;28;20044;-67
2023/03/25 03:15:00;;;;;;;21.58;3.38;;;9.40;99.90;;;;;;5051070;28;20048;-67
2023/03/25 03:17:56;;;;;;;13.23;3.40;;;9.30;99.90;;;;;;5050082;28;20040;-67
2023/03/25 03:20:51;;;;;;;17.63;3.75;;;9.30;99.90;;;;;;5049761;28;20044;-67
2023/03/25 03:23:32;;;;;;;22.70;4.18;;;9.30;99.90;;;;;;5046749;28;20489;-67
2023/03/25 03:26:20;;;;;;;22.15;4.80;;;9.30;99.90;;;;;;5050342;28;20045;-67
2023/03/25 03:28:54;;;;;;;24.60;4.10;;;9.30;99.90;;;;;;5033014;28;20055;-67
2023/03/25 03:31:44;;;;;;;24.42;5.72;;;9.30;99.90;;;;;;5049592;28;20051;-67
2023/03/25 03:34:21;;;;;;;15.43;3.67;;;9.30;99.90;;;;;;5049629;28;20052;-67
2023/03/25 03:36:51;;;;;;;21.83;4.35;;;9.30;99.90;;;;;;5049453;28;20512;-67
2023/03/25 03:39:27;;;;;;;18.60;3.35;;;9.30;99.90;;;;;;5049106;28;20458;-67
2023/03/25 03:42:20;;;;;;;17.55;4.03;;;9.30;99.90;;;;;;5049421;28;20053;-67
2023/03/25 03:44:52;;;;;;;15.93;3.05;;;9.40;99.90;;;;;;5048965;28;20053;-67
2023/03/25 03:47:25;;;;;;;21.90;4.20;;;9.40;99.90;;;;;;5049124;28;20378;-67
2023/03/25 03:50:08;;;;;;;21.25;4.97;;;9.40;99.90;;;;;;5049636;28;20359;-67
2023/03/25 03:53:02;;;;;;;17.88;4.07;;;9.40;99.90;;;;;;5032060;28;20154;-67
2023/03/25 03:55:36;;;;;;;13.20;2.80;;;9.40;99.90;;;;;;5050725;28;20098;-67
2023/03/25 03:58:35;;;;;;;18.60;4.90;;;9.40;99.90;;;;;;5049567;28;20389;-67
2023/03/25 04:01:18;;;;;;;20.50;4.22;;;9.40;99.90;;;;;;5056732;28;20048;-67
2023/03/25 04:03:52;;;;;;;15.77;3.55;;;9.40;99.90;;;;;;5049188;28;20076;-68
2023/03/25 04:06:34;;;;;;;19.92;4.10;;;9.40;99.90;;;;;;5049234;28;20045;-67
2023/03/25 04:09:32;;;;;;;22.90;4.45;;;9.40;99.90;;;;;;5034667;28;20041;-67
2023/03/25 04:12:18;;;;;;;14.05;3.53;;;9.40;99.90;;;;;;5012411;28;20695;-68
2023/03/25 04:14:45;;;;;;;16.83;3.65;;;9.30;99.90;;;;;;5011688;28;20121;-67
2023/03/25 04:17:11;;;;;;;15.65;3.78;;;9.30;99.90;;;;;;5012166;28;20088;-67
2023/03/25 04:19:37;;;;;;;18.15;3.78;;;9.30;99.90;;;;;;5012128;28;20069;-67
2023/03/25 04:22:05;;;;;;;19.80;4.13;;;9.30;99.90;;;;;;4994780;28;20054;-67
2023/03/25 04:24:32;;;;;;;24.23;4.10;;;9.30;99.90;;;;;;4995637;28;20054;-67
2023/03/25 04:27:02;;;;;;;17.42;3.80;;;9.40;99.90;;;;;;5028559;28;20038;-67
2023/03/25 04:29:32;;;;;;;14.68;3.60;;;9.40;99.90;;;;;;4995289;28;20050;-67
2023/03/25 04:31:59;;;;;;;18.02;4.30;;;9.30;99.90;;;;;;5012038;28;20034;-67
2023/03/25 04:34:25;;;;;;;23.77;4.45;;;9.40;99.90;;;;;;4995462;28;20049;-67
2023/03/25 04:36:52;;;;;;;28.13;4.18;;;9.40;99.90;;;;;;5027781;28;20112;-67
2023/03/25 04:39:22;;;;;;;24.23;5.85;;;9.40;99.90;;;;;;5028312;28;20042;-67
2023/03/25 04:41:49;;;;;;;19.58;4.78;;;9.40;99.90;;;;;;4994810;28;20057;-67
2023/03/25 04:44:19;;;;;;;26.55;4.90;;;9.40;99.90;;;;;;5028293;28;20096;-67
2023/03/25 04:46:45;;;;;;;25.92;4.05;;;9.40;99.90;;;;;;5010948;28;20070;-68
2023/03/25 04:49:20;;;;;;;23.17;4.57;;;9.40;99.90;;;;;;5041860;28;20073;-67
2023/03/25 04:51:51;;;;;;;24.85;5.82;;;9.40;99.90;;;;;;5032823;28;20087;-67
2023/03/25 04:54:19;;;;;;;23.13;4.40;;;9.40;99.90;;;;;;5032478;28;20052;-66
2023/03/25 04:56:49;;;;;;;21.17;4.22;;;9.30;99.90;;;;;;5032142;28;20497;-67
2023/03/25 04:59:19;;;;;;;;;;;9.40;99.90;;;;;;5034439;28;20041;-68
2023/03/25 05:01:45;;;;;;;;;;;9.40;99.90;;;;;;5066302;28;19917;-67
2023/03/25 05:04:16;;;;;;;23.50;4.88;;;9.30;99.90;;;;;;5031743;28;19968;-67
2023/03/25 05:06:45;;;;;;;21.17;4.55;;;9.30;99.90;;;;;;5032551;28;20049;-66
2023/03/25 05:09:23;;;;;;;30.70;7.85;;;9.30;99.90;;;;;;5015994;28;20446;-67
2023/03/25 05:11:51;;;;;;;23.15;4.35;;;9.30;99.90;;;;;;5033111;28;20117;-68
2023/03/25 05:14:20;;;;;;;20.13;4.20;;;9.30;99.90;;;;;;5033654;28;20049;-67
2023/03/25 05:16:47;;;;;;;31.55;4.55;;;9.30;99.90;;;;;;5031453;28;20520;-67
2023/03/25 05:19:14;;;;;;;25.95;5.32;;;9.20;99.90;;;;;;5032897;28;20045;-67
2023/03/25 05:21:41;;;;;;;31.48;5.47;;;9.20;99.90;;;;;;5032436;28;20037;-67
2023/03/25 05:24:12;;;;;;;23.88;4.90;;;9.20;99.90;;;;;;5032653;28;20052;-67
2023/03/25 05:26:40;;;;;;;24.17;4.78;;;9.20;99.90;;;;;;5031913;28;20041;-67
2023/03/25 05:29:09;;;;;;;20.27;4.05;;;9.20;99.90;;;;;;5033182;28;20060;-67
2023/03/25 05:31:35;;;;;;;24.07;5.17;;;9.20;99.90;;;;;;5031321;28;20052;-67
2023/03/25 05:34:05;;;;;;;24.80;5.75;;;9.20;99.90;;;;;;5033108;28;20265;-67
2023/03/25 05:36:31;;;;;;;;;;;9.20;99.90;;;;;;5032436;28;20041;-67
2023/03/25 05:38:57;;;;;;;23.90;6.47;;;9.20;99.90;;;;;;5032357;28;19917;-68
2023/03/25 05:41:31;;;;;;;24.45;4.90;;;9.20;99.90;;;;;;5033044;28;20045;-67
2023/03/25 05:43:59;;;;;;;23.23;4.60;;;9.20;99.90;;;;;;5032946;28;20038;-67
2023/03/25 05:46:27;;;;;;;23.02;5.40;;;9.20;99.90;;;;;;5030918;28;20045;-66
2023/03/25 05:48:52;;;;;;;26.60;4.78;;;9.30;99.90;;;;;;5032907;28;20081;-68
2023/03/25 05:51:20;;;;;;;20.05;4.70;;;9.30;99.90;;;;;;5032624;28;20072;-67
2023/03/25 05:53:50;;;;;;;24.25;6.18;;;9.30;99.90;;;;;;5030838;28;20490;-67
2023/03/25 05:56:18;;;;;;;21.35;4.50;;;9.30;99.90;;;;;;5044828;28;20397;-67
2023/03/25 05:58:48;;;;;;;29.38;4.90;;;9.30;99.90;;;;;;5050599;28;20071;-67
2023/03/25 06:01:15;;;;;;;25.90;5.07;;;9.30;99.90;;;;;;5051275;28;20067;-67
2023/03/25 06:03:42;;;;;;;19.63;3.95;;;9.30;99.90;;;;;;5051035;28;20056;-67
2023/03/25 06:06:17;;;;;;;18.67;3.83;;;9.30;99.90;;;;;;5051896;28;20390;-68
2023/03/25 06:08:44;;;;;;;20.30;5.65;;;9.30;99.90;;;;;;5051102;28;20520;-68
2023/03/25 06:11:12;;;;;;;20.25;4.78;;;9.30;99.90;;;;;;5051200;28;20041;-68
2023/03/25 06:13:39;;;;;;;23.05;5.00;;;9.30;99.90;;;;;;5051561;28;20076;-67
2023/03/25 06:16:07;;;;;;;26.73;5.68;;;9.30;99.90;;;;;;5034156;28;20049;-67
2023/03/25 06:18:36;;;;;;;25.23;5.18;;;9.30;99.90;;;;;;5051036;28;20053;-68
2023/03/25 06:21:03;;;;;;;19.75;3.97;;;9.30;99.90;;;;;;5050339;28;20041;-67
2023/03/25 06:23:33;;;;;;;18.25;3.33;;;9.30;99.90;;;;;;5051822;28;20478;-68
2023/03/25 06:26:00;;;;;;;20.52;4.68;;;9.30;99.90;;;;;;5051989;28;20393;-67
2023/03/25 06:28:26;;;;;;;23.73;3.22;;;9.30;99.90;;;;;;5051334;28;20048;-68
2023/03/25 06:30:51;;;;;;;21.65;4.38;;;9.40;99.90;;;;;;5050332;28;20041;-67
2023/03/25 06:33:18;;;;;;;21.42;3.28;;;9.40;99.90;;;;;;5050609;28;20691;-67
2023/03/25 06:35:52;;;;;;;19.50;3.28;;;9.40;99.90;;;;;;5050065;28;20126;-67
2023/03/25 06:38:20;;;;;;;19.58;3.58;;;9.40;99.90;;;;;;5050492;28;20049;-67
2023/03/25 06:40:46;;;;;;;15.55;3.28;;;9.50;99.90;;;;;;5033196;28;20044;-66
2023/03/25 06:43:13;;;;;;;20.15;3.55;;;9.50;99.90;;;;;;5050235;28;20052;-67
2023/03/25 06:45:39;;;;;;;14.90;3.40;;;9.50;99.90;;;;;;5051658;28;20037;-68
2023/03/25 06:48:05;;;;;;;17.92;3.53;;;9.50;99.90;;;;;;5049758;28;20037;-67
2023/03/25 06:50:31;;;;;;;23.30;4.18;;;9.50;99.90;;;;;;5050340;28;20094;-66
2023/03/25 06:52:57;;;;;;;19.80;3.10;;;9.50;99.90;;;;;;5050187;28;20128;-67
2023/03/25 06:55:23;;;;;;;17.75;3.75;;;9.50;99.90;;;;;;5049634;28;20040;-67
2023/03/25 06:57:49;;;;;;;19.77;4.75;;;9.50;99.90;;;;;;5050293;28;20393;-67
2023/03/25 07:00:21;;;;;;;19.60;4.20;;;9.50;99.90;;;;;;5050119;28;20540;-67
2023/03/25 07:02:47;;;;;;;21.85;4.55;;;9.50;99.90;;;;;;5049381;28;20045;-67
2023/03/25 07:05:12;;;;;;;23.92;4.43;;;9.50;99.90;;;;;;5049829;28;20095;-67
2023/03/25 07:07:38;;;;;;;21.80;5.10;;;9.60;99.90;;;;;;5051339;28;20064;-67
2023/03/25 07:10:06;;;;;;;17.80;3.80;;;9.50;99.90;;;;;;5049475;28;20029;-67
2023/03/25 07:12:34;;;;;;;22.85;3.88;;;9.50;99.90;;;;;;5049833;28;20049;-67
2023/03/25 07:14:59;;;;;;;16.52;3.60;;;9.50;99.90;;;;;;5049737;28;20044;-66
2023/03/25 07:17:25;;;;;;;17.33;4.68;;;9.50;99.90;;;;;;5050774;28;20094;-67
2023/03/25 07:19:51;;;;;;;18.00;4.93;;;9.40;99.90;;;;;;5049784;28;20095;-67
2023/03/25 07:22:17;;;;;;;15.73;3.03;;;9.30;99.90;;;;;;5049760;28;20052;-67
2023/03/25 07:24:43;;;;;;;19.42;4.38;;;9.20;99.90;;;;;;5050327;28;20060;-66
2023/03/25 07:27:14;;;;;;;24.63;4.13;;;9.10;99.90;;;;;;5050821;28;20052;-67
2023/03/25 07:29:40;;;;;;;22.38;3.40;;;9.10;99.90;;;;;;5032308;28;20040;-67
2023/03/25 07:32:06;;;;;;;21.27;4.88;;;9.00;99.90;;;;;;5049510;28;20051;-68
2023/03/25 07:34:32;;;;;;;20.50;4.05;;;9.00;99.90;;;;;;5050185;28;20040;-67
2023/03/25 07:36:58;;;;;;;20.27;3.63;;;9.00;99.90;;;;;;5048881;28;20040;-67
2023/03/25 07:39:24;;;;;;;16.33;3.45;;;8.90;99.90;;;;;;5049578;28;20186;-67
2023/03/25 07:41:51;;;;;;;16.95;4.28;;;8.90;99.90;;;;;;5050666;28;20388;-67
2023/03/25 07:44:19;;;;;;;16.15;3.13;;;8.90;99.90;;;;;;5048064;28;20040;-67
2023/03/25 07:46:46;;;;;;;19.23;4.43;;;8.80;99.90;;;;;;5049031;28;20041;-68
2023/03/25 07:49:12;;;;;;;18.02;4.50;;;8.70;99.90;;;;;;5050643;28;20477;-68
2023/03/25 07:51:37;;;;;;;20.30;3.92;;;8.70;99.90;;;;;;5050056;28;20041;-68
2023/03/25 07:54:03;;;;;;;31.30;5.57;;;8.80;99.90;;;;;;5050733;28;20047;-68
2023/03/25 07:56:29;;;;;;;28.45;3.78;;;8.80;99.90;;;;;;5048944;28;20041;-68
2023/03/25 07:58:55;;;;;;;19.95;4.53;;;8.90;99.90;;;;;;5048675;28;20551;-68
2023/03/25 08:01:21;;;;;;;22.25;4.13;;;8.90;99.90;;;;;;5049207;28;20051;-69
2023/03/25 08:03:47;;;;;;;18.70;3.70;;;9.00;99.90;;;;;;5050347;28;20035;-67
2023/03/25 08:06:13;;;;;;;22.90;3.63;;;9.00;99.90;;;;;;5049737;28;20489;-67
2023/03/25 08:08:39;;;;;;;22.55;4.63;;;9.10;99.90;;;;;;5048875;28;20645;-67
2023/03/25 08:11:05;;;;;;;21.45;4.60;;;9.20;99.90;;;;;;5049122;28;20045;-67
2023/03/25 08:13:31;;;;;;;19.42;3.92;;;9.30;99.90;;;;;;5048594;28;20072;-67
2023/03/25 08:15:57;;;;;;;22.00;3.95;;;9.30;99.90;;;;;;5050576;28;20069;-66
2023/03/25 08:18:23;;;;;;;18.70;3.47;;;9.30;99.90;;;;;;5050330;28;20551;-67
2023/03/25 08:20:49;;;;;;;18.88;3.45;;;9.30;99.90;;;;;;5049865;28;20382;-67
2023/03/25 08:23:17;;;;;;;18.60;3.90;;;9.40;99.90;;;;;;5050118;28;20053;-67
2023/03/25 08:25:43;;;;;;;19.52;3.63;;;9.60;99.90;;;;;;5048183;28;20044;-67
2023/03/25 08:28:09;;;;;;;12.98;3.17;;;9.60;99.90;;;;;;5049857;28;20033;-68
2023/03/25 08:30:37;;;;;;;17.00;3.40;;;9.80;99.90;;;;;;5048991;28;20040;-67
2023/03/25 08:33:05;;;;;;;23.33;4.30;;;9.80;99.90;;;;;;5048514;28;20072;-67
2023/03/25 08:35:33;;;;;;;18.48;4.05;;;10.00;99.90;;;;;;5050247;28;20413;-67
2023/03/25 08:38:00;;;;;;;20.15;4.10;;;10.20;99.90;;;;;;5048853;28;20045;-67
2023/03/25 08:40:26;;;;;;;16.02;3.45;;;10.30;99.90;;;;;;5048246;28;20516;-67
2023/03/25 08:42:53;;;;;;;18.30;4.28;;;10.20;99.90;;;;;;5050188;28;20485;-68
2023/03/25 08:45:18;;;;;;;23.42;4.72;;;10.00;99.90;;;;;;5048805;28;20048;-69
2023/03/25 08:47:45;;;;;;;15.93;4.28;;;9.90;99.90;;;;;;5048419;28;20029;-67
2023/03/25 08:50:11;;;;;;;25.45;5.97;;;9.90;99.90;;;;;;5049014;28;20381;-67
2023/03/25 08:52:37;;;;;;;14.65;3.30;;;9.80;99.90;;;;;;5048812;28;20041;-66
2023/03/25 08:55:06;;;;;;;19.85;3.85;;;9.80;99.90;;;;;;5050208;28;20128;-67
2023/03/25 08:57:35;;;;;;;22.25;4.75;;;9.80;99.90;;;;;;5053704;28;20049;-66
2023/03/25 09:00:01;;;;;;;18.80;3.90;;;9.90;99.90;;;;;;5035950;28;20041;-66
2023/03/25 09:02:27;;;;;;;13.35;2.92;;;10.00;99.90;;;;;;5051665;28;20527;-67
2023/03/25 09:04:54;;;;;;;15.80;3.17;;;10.10;99.90;;;;;;5051574;28;20090;-66
2023/03/25 09:07:22;;;;;;;17.83;2.97;;;10.30;99.90;;;;;;5035374;28;20064;-67
2023/03/25 09:09:47;;;;;;;18.50;3.97;;;10.30;99.90;;;;;;5051607;28;20097;-67
2023/03/25 09:12:13;;;;;;;17.50;2.78;;;10.30;99.90;;;;;;5053189;28;20123;-68
2023/03/25 09:14:39;;;;;;;11.90;3.45;;;10.40;99.90;;;;;;5052713;28;20040;-68
2023/03/25 09:17:06;;;;;;;19.20;3.97;;;10.40;99.90;;;;;;5052211;28;20041;-67
2023/03/25 09:19:34;;;;;;;13.20;3.40;;;10.30;99.90;;;;;;5051770;28;20120;-67
2023/03/25 09:22:00;;;;;;;21.77;4.88;;;10.30;99.90;;;;;;5051157;28;20178;-68
2023/03/25 09:24:26;;;;;;;13.05;2.92;;;10.30;99.90;;;;;;5051240;28;20051;-66
2023/03/25 09:26:51;;;;;;;19.63;3.95;;;10.30;99.90;;;;;;5033370;28;20041;-67
2023/03/25 09:29:17;;;;;;;15.73;3.45;;;10.50;99.90;;;;;;5050174;28;20470;-68
2023/03/25 09:31:43;;;;;;;11.60;2.83;;;10.70;99.90;;;;;;5033104;28;20041;-65
2023/03/25 09:34:09;;;;;;;18.10;4.03;;;11.10;99.90;;;;;;5031783;28;20041;-69
2023/03/25 09:36:36;;;;;;;15.95;2.85;;;11.30;99.90;;;;;;5031043;28;20103;-68
2023/03/25 09:39:02;;;;;;;14.50;2.80;;;11.40;99.90;;;;;;5048267;28;20037;-68
2023/03/25 09:41:56;;;;;;;20.02;4.43;;;11.40;99.90;;;;;;5049951;28;20049;-65
2023/03/25 09:44:29;;;;;;;15.55;3.40;;;11.40;99.90;;;;;;5032046;28;20049;-67
2023/03/25 09:46:58;;;;;;;15.45;3.75;;;11.20;99.90;;;;;;5031585;28;20033;-66
2023/03/25 09:53:11;;;;;;;11.35;3.08;;;11.00;99.90;;;;;;5052650;28;20528;-69
2023/03/25 09:55:42;;;;;;;;;;;10.90;99.90;;;;;;5051429;28;20152;-67
2023/03/25 09:58:46;;;;;;;17.23;3.60;;;10.80;99.90;;;;;;5031326;28;20039;-67
2023/03/25 10:01:22;;;;;;;17.90;3.13;;;10.80;99.90;;;;;;5046443;28;20136;-68
2023/03/25 10:04:04;;;;;;;16.58;3.15;;;10.80;99.90;;;;;;5051967;28;20044;-67
2023/03/25 10:06:38;;;;;;;18.60;4.00;;;10.90;99.90;;;;;;5050609;28;20065;-68
2023/03/25 10:09:13;;;;;;;17.67;3.72;;;10.90;99.90;;;;;;5051225;28;20119;-68
2023/03/25 10:11:45;;;;;;;18.05;3.80;;;10.90;99.90;;;;;;5050204;28;20073;-69
2023/03/25 10:14:25;;;;;;;15.40;3.65;;;10.90;99.90;;;;;;5052417;28;20075;-72
2023/03/25 10:16:54;;;;;;;15.18;4.07;;;10.90;99.90;;;;;;5035046;28;20564;-73
2023/03/25 10:19:53;;;;;;;15.75;3.78;;;11.00;99.90;;;;;;5030430;28;20425;-72
2023/03/25 10:22:35;;;;;;;16.30;3.47;;;11.10;99.90;;;;;;5063937;28;20137;-72
2023/03/25 10:25:10;;;;;;;13.68;3.40;;;11.10;99.90;;;;;;5063368;28;20045;-72
2023/03/25 10:27:43;;;;;;;12.20;3.53;;;11.10;99.90;;;;;;5032034;28;20096;-70
2023/03/25 10:30:09;;;;;;;17.63;4.03;;;11.10;99.90;;;;;;5047910;28;20548;-73
2023/03/25 10:32:40;;;;;;;13.70;3.28;;;11.10;99.90;;;;;;5030746;28;20166;-72
2023/03/25 10:35:22;;;;;;;20.05;4.07;;;11.10;99.90;;;;;;5047223;28;20405;-68
2023/03/25 10:37:51;;;;;;;17.35;3.58;;;11.10;99.90;;;;;;5032025;28;20386;-70
2023/03/25 10:40:26;;;;;;;16.48;3.83;;;11.10;99.90;;;;;;5046683;28;20124;-71
2023/03/25 10:43:13;;;;;;;21.77;4.28;;;11.10;99.90;;;;;;5013895;28;20044;-69
2023/03/25 10:45:41;;;;;;;18.27;3.63;;;11.20;99.90;;;;;;5031169;28;20043;-71
2023/03/25 10:48:26;;;;;;;20.88;3.78;;;11.10;99.90;;;;;;5031734;28;20052;-71
2023/03/25 10:51:25;;;;;;;20.10;4.50;;;11.10;99.90;;;;;;5046889;28;20041;-68
2023/03/25 10:53:52;;;;;;;19.42;3.70;;;11.20;99.90;;;;;;5046182;28;20037;-68
2023/03/25 10:56:32;;;;;;;16.67;3.85;;;11.40;99.90;;;;;;5031647;28;20664;-69
2023/03/25 10:59:03;;;;;;;17.88;4.10;;;11.40;99.90;;;;;;5031323;28;20045;-67
2023/03/25 11:01:50;;;;;;;12.80;3.72;;;11.30;99.90;;;;;;5049602;28;20044;-68
2023/03/25 11:04:20;;;;;;;12.85;3.05;;;11.30;99.90;;;;;;5051072;28;20056;-68
2023/03/25 11:06:54;;;;;;;16.83;3.15;;;11.30;99.90;;;;;;5044056;28;20037;-69
2023/03/25 11:09:25;;;;;;;15.43;3.80;;;11.30;99.90;;;;;;5031239;28;20033;-69
2023/03/25 11:11:55;;;;;;;17.98;3.83;;;11.30;99.90;;;;;;5071954;28;20036;-69
2023/03/25 11:14:25;;;;;;;;;;;11.30;99.90;;;;;;5029469;28;20567;-67
2023/03/25 11:17:02;;;;;;;13.82;3.72;;;11.30;99.90;;;;;;5062743;28;20008;-69
2023/03/25 11:19:35;;;;;;;19.05;3.60;;;11.30;99.90;;;;;;5012640;28;20075;-69
2023/03/25 11:22:21;;;;;;;15.25;4.07;;;11.30;99.90;;;;;;5045587;28;20058;-71
2023/03/25 11:24:53;;;;;;;14.63;3.50;;;11.50;99.90;;;;;;5029476;28;20111;-69
2023/03/25 11:27:23;;;;;;;16.63;3.65;;;11.70;99.90;;;;;;5029783;28;20367;-69
2023/03/25 11:29:52;;;;;;;12.32;3.30;;;11.80;99.90;;;;;;5044448;28;20037;-67
2023/03/25 11:32:32;;;;;;;12.50;2.85;;;11.90;99.90;;;;;;5055218;28;20037;-71
2023/03/25 11:35:02;;;;;;;12.80;3.08;;;12.00;99.90;;;;;;5065095;28;20051;-69
2023/03/25 11:37:31;;;;;;;15.55;3.55;;;12.10;99.90;;;;;;5050279;28;20044;-67
2023/03/25 11:40:05;;;;;;;13.75;2.92;;;12.10;99.90;;;;;;5049524;28;20051;-70
2023/03/25 11:42:36;;;;;;;17.88;3.42;;;12.20;99.90;;;;;;5048246;28;20044;-73
2023/03/25 11:45:03;;;;;;;17.13;4.05;;;12.20;99.90;;;;;;5048844;28;20425;-67
2023/03/25 11:47:35;;;;;;;15.98;2.65;;;12.00;99.90;;;;;;5046916;28;20043;-67
2023/03/25 11:50:02;;;;;;;12.77;2.53;;;11.90;99.90;;;;;;5047484;28;20037;-67
2023/03/25 11:52:49;;;;;;;13.60;3.33;;;11.80;99.90;;;;;;5046802;28;20098;-66
2023/03/25 11:55:22;;;;;;;11.77;2.90;;;11.70;99.90;;;;;;5047315;28;20114;-67
2023/03/25 11:57:49;;;;;;;16.67;3.45;;;11.60;99.90;;;;;;5047483;28;20076;-68
2023/03/25 12:00:27;;;;;;;14.48;3.67;;;11.60;99.90;;;;;;5047803;28;20048;-67
2023/03/25 12:03:10;;;;;;;16.02;3.72;;;11.50;99.90;;;;;;5030836;28;20252;-68
2023/03/25 12:05:36;;;;;;;18.60;3.90;;;11.60;99.90;;;;;;5047704;28;20048;-68
2023/03/25 12:08:14;;;;;;;15.73;3.75;;;11.70;99.90;;;;;;5047710;28;20048;-67
2023/03/25 12:11:06;;;;;;;14.20;3.28;;;11.90;99.90;;;;;;5048266;28;20048;-68
2023/03/25 12:13:40;;;;;;;13.18;3.33;;;12.20;99.90;;;;;;5047842;28;20039;-67
2023/03/25 12:16:09;;;;;;;19.75;4.18;;;12.40;99.90;;;;;;5047594;28;20051;-67
2023/03/25 12:18:38;;;;;;;13.07;2.90;;;12.40;99.90;;;;;;5047260;28;20049;-68
2023/03/25 12:21:10;;;;;;;13.30;3.55;;;12.40;99.90;;;;;;5047521;28;20055;-68
2023/03/25 12:23:48;;;;;;;15.00;2.47;;;12.50;99.90;;;;;;5046769;28;20057;-67
2023/03/25 12:26:25;;;;;;;15.70;3.28;;;12.50;99.90;;;;;;5047369;28;20060;-68
2023/03/25 12:29:01;;;;;;;13.80;2.55;;;12.40;99.90;;;;;;5047800;28;20056;-68
2023/03/25 12:32:00;;;;;;;12.75;2.63;;;12.30;99.90;;;;;;5050856;28;20037;-68
2023/03/25 12:35:00;;;;;;;14.43;3.10;;;12.30;99.90;;;;;;5051713;28;20045;-68
2023/03/25 12:37:50;;;;;;;19.95;2.90;;;12.30;99.90;;;;;;5051401;28;20443;-67
2023/03/25 12:40:35;;;;;;;11.10;2.78;;;12.50;99.90;;;;;;5051385;28;20568;-69
2023/03/25 12:43:10;;;;;;;12.48;3.63;;;12.50;99.90;;;;;;5051519;28;20091;-67
2023/03/25 12:45:46;;;;;;;11.90;2.25;;;12.60;99.90;;;;;;5050313;28;20494;-68
2023/03/25 12:48:38;;;;;;;17.23;3.28;;;12.90;99.90;;;;;;5038902;28;20061;-68
2023/03/25 12:51:19;;;;;;;11.75;2.95;;;13.00;99.90;;;;;;5014670;28;20544;-67
2023/03/25 12:54:03;;;;;;;17.80;3.47;;;12.80;99.90;;;;;;5033810;28;20045;-68
2023/03/25 12:56:53;;;;;;;15.07;3.45;;;12.80;99.90;;;;;;5033867;28;20029;-67
2023/03/25 12:59:30;;;;;;;15.10;2.50;;;12.60;99.90;;;;;;5068142;28;20067;-68
2023/03/25 13:02:02;;;;;;;15.70;3.95;;;12.30;99.90;;;;;;5052249;28;20052;-69
2023/03/25 13:04:47;;;;;;;17.02;2.50;;;12.10;99.90;;;;;;5053531;28;20049;-66
2023/03/25 13:07:44;;;;;;;15.93;3.22;;;12.00;99.90;;;;;;5051813;28;20048;-69
2023/03/25 13:10:15;;;;;;;14.07;2.85;;;12.00;99.90;;;;;;5052396;28;20378;-68
2023/03/25 13:12:55;;;;;;;12.20;2.60;;;12.20;99.90;;;;;;5051412;28;20466;-68